createdAt,value
2017-11-25T00:00:08.565Z,93.98
2017-11-25T00:01:08.561Z,94.60
2017-11-25T00:02:08.564Z,94.08
2017-11-25T00:03:08.554Z,93.98
2017-11-25T00:04:08.551Z,94.37
2017-11-25T00:05:08.557Z,94.18
2017-11-25T00:06:08.549Z,94.37
2017-11-25T00:07:08.550Z,93.98
2017-11-25T00:08:08.546Z,94.56
2017-11-25T00:09:08.542Z,93.98
2017-11-25T00:10:08.541Z,94.93
2017-11-25T00:11:08.537Z,95.12
2017-11-25T00:12:08.536Z,94.74
2017-11-25T00:13:08.533Z,94.65
2017-11-25T00:14:08.531Z,94.74
2017-11-25T00:15:08.529Z,94.93
2017-11-25T00:16:08.527Z,95.03
2017-11-25T00:17:08.525Z,95.12
2017-11-25T00:18:08.525Z,95.03
2017-11-25T00:19:08.518Z,95.03
2017-11-25T00:20:08.520Z,95.12
2017-11-25T00:21:08.518Z,95.03
2017-11-25T00:22:08.514Z,95.03
2017-11-25T00:23:08.511Z,94.93
2017-11-25T00:24:08.506Z,95.12
2017-11-25T00:25:08.510Z,95.03
2017-11-25T00:26:08.504Z,94.93
2017-11-25T00:27:08.503Z,94.74
2017-11-25T00:28:08.505Z,94.65
2017-11-25T00:29:08.498Z,94.56
2017-11-25T00:30:08.496Z,94.93
2017-11-25T00:31:08.495Z,94.84
2017-11-25T00:32:08.490Z,95.03
2017-11-25T00:33:08.493Z,95.03
2017-11-25T00:34:08.490Z,95.03
2017-11-25T00:35:08.492Z,94.65
2017-11-25T00:36:08.479Z,94.74
2017-11-25T00:37:08.479Z,94.84
2017-11-25T00:38:08.481Z,94.93
2017-11-25T00:39:08.476Z,95.03
2017-11-25T00:40:08.548Z,94.93
2017-11-25T00:41:08.472Z,94.93
2017-11-25T00:42:08.464Z,95.03
2017-11-25T00:43:08.467Z,95.03
2017-11-25T00:44:08.467Z,94.93
2017-11-25T00:45:08.464Z,94.93
2017-11-25T00:46:08.457Z,94.84
2017-11-25T00:47:08.454Z,94.84
2017-11-25T00:48:08.454Z,94.70
2017-11-25T00:49:08.448Z,95.32
2017-11-25T00:50:08.451Z,95.03
2017-11-25T00:51:08.447Z,95.60
2017-11-25T00:52:08.449Z,95.98
2017-11-25T00:53:08.441Z,95.84
2017-11-25T00:54:08.442Z,95.70
2017-11-25T00:55:08.440Z,95.60
2017-11-25T00:56:08.435Z,95.70
2017-11-25T00:57:08.434Z,95.60
2017-11-25T00:58:08.431Z,95.98
2017-11-25T00:59:08.427Z,95.79
2017-11-25T01:00:08.425Z,95.60
2017-11-25T01:01:08.425Z,95.89
2017-11-25T01:02:08.423Z,95.70
2017-11-25T01:03:08.418Z,95.60
2017-11-25T01:04:08.423Z,95.12
2017-11-25T01:05:08.414Z,96.36
2017-11-25T01:06:08.411Z,96.46
2017-11-25T01:07:08.420Z,95.70
2017-11-25T01:08:08.410Z,95.41
2017-11-25T01:09:08.405Z,96.36
2017-11-25T01:10:08.407Z,95.51
2017-11-25T01:11:08.402Z,96.17
2017-11-25T01:12:08.400Z,96.08
2017-11-25T01:13:08.406Z,95.12
2017-11-25T01:14:08.397Z,96.26
2017-11-25T01:15:08.392Z,95.89
2017-11-25T01:16:08.386Z,95.98
2017-11-25T01:17:08.385Z,95.79
2017-11-25T01:18:08.397Z,96.17
2017-11-25T01:19:08.385Z,95.98
2017-11-25T01:20:08.383Z,96.17
2017-11-25T01:21:08.380Z,96.17
2017-11-25T01:22:08.376Z,95.79
2017-11-25T01:23:08.375Z,96.55
2017-11-25T01:24:08.378Z,96.46
2017-11-25T01:25:08.366Z,96.55
2017-11-25T01:26:08.364Z,96.36
2017-11-25T01:27:08.363Z,96.46
2017-11-25T01:28:08.360Z,96.36
2017-11-25T01:29:08.361Z,96.74
2017-11-25T01:30:08.360Z,97.13
2017-11-25T01:31:08.363Z,97.13
2017-11-25T01:32:08.409Z,97.22
2017-11-25T01:33:08.358Z,96.94
2017-11-25T01:34:08.381Z,96.84
2017-11-25T01:35:08.347Z,96.65
2017-11-25T01:36:08.351Z,96.74
2017-11-25T01:37:08.342Z,96.60
2017-11-25T01:38:08.347Z,96.84
2017-11-25T01:39:08.338Z,96.84
2017-11-25T01:40:08.338Z,96.74
2017-11-25T01:41:08.341Z,96.98
2017-11-25T01:42:08.333Z,96.98
2017-11-25T01:43:08.329Z,96.79
2017-11-25T01:44:08.329Z,96.70
2017-11-25T01:45:08.320Z,96.89
2017-11-25T01:46:08.334Z,96.98
2017-11-25T01:47:08.322Z,97.27
2017-11-25T01:48:08.317Z,97.08
2017-11-25T01:49:08.312Z,96.98
2017-11-25T01:50:08.311Z,96.89
2017-11-25T01:51:08.314Z,96.98
2017-11-25T01:52:08.313Z,96.70
2017-11-25T01:53:08.306Z,96.70
2017-11-25T01:54:08.304Z,96.89
2017-11-25T01:55:08.303Z,96.70
2017-11-25T01:56:08.299Z,96.79
2017-11-25T01:57:08.301Z,97.36
2017-11-25T01:58:08.295Z,97.46
2017-11-25T01:59:08.293Z,96.89
2017-11-25T02:00:08.290Z,96.79
2017-11-25T02:01:08.288Z,96.70
2017-11-25T02:02:08.286Z,96.79
2017-11-25T02:03:08.286Z,97.27
2017-11-25T02:04:08.284Z,97.08
2017-11-25T02:05:08.282Z,97.17
2017-11-25T02:06:08.280Z,97.08
2017-11-25T02:07:08.287Z,96.89
2017-11-25T02:08:08.291Z,97.08
2017-11-25T02:09:08.273Z,96.98
2017-11-25T02:10:08.271Z,96.79
2017-11-25T02:11:08.267Z,96.60
2017-11-25T02:12:08.298Z,97.36
2017-11-25T02:13:08.266Z,97.36
2017-11-25T02:14:08.261Z,96.70
2017-11-25T02:15:08.257Z,96.98
2017-11-25T02:16:08.264Z,97.27
2017-11-25T02:17:08.258Z,97.27
2017-11-25T02:18:08.248Z,96.79
2017-11-25T02:19:08.258Z,96.60
2017-11-25T02:20:08.255Z,97.65
2017-11-25T02:21:08.253Z,97.36
2017-11-25T02:22:08.245Z,97.08
2017-11-25T02:23:08.248Z,97.84
2017-11-25T02:24:08.242Z,97.84
2017-11-25T02:25:08.240Z,97.17
2017-11-25T02:26:08.240Z,97.65
2017-11-25T02:27:08.241Z,97.46
2017-11-25T02:28:08.233Z,97.17
2017-11-25T02:29:08.232Z,97.74
2017-11-25T02:30:08.227Z,98.22
2017-11-25T02:31:08.232Z,98.41
2017-11-25T02:32:08.228Z,97.84
2017-11-25T02:33:08.224Z,97.84
2017-11-25T02:34:08.221Z,97.84
2017-11-25T02:35:08.220Z,97.84
2017-11-25T02:36:08.223Z,98.32
2017-11-25T02:37:08.215Z,98.50
2017-11-25T02:38:08.221Z,98.60
2017-11-25T02:39:08.212Z,98.32
2017-11-25T02:40:08.211Z,98.32
2017-11-25T02:41:08.212Z,98.13
2017-11-25T02:42:08.207Z,98.50
2017-11-25T02:43:08.203Z,98.98
2017-11-25T02:44:08.201Z,98.69
2017-11-25T02:45:08.198Z,98.03
2017-11-25T02:46:08.214Z,98.03
2017-11-25T02:47:08.194Z,98.60
2017-11-25T02:48:08.191Z,98.13
2017-11-25T02:49:08.188Z,97.93
2017-11-25T02:50:08.187Z,97.84
2017-11-25T02:51:08.186Z,97.65
2017-11-25T02:52:08.183Z,97.74
2017-11-25T02:53:08.184Z,97.65
2017-11-25T02:54:08.182Z,97.65
2017-11-25T02:55:08.180Z,97.55
2017-11-25T02:56:08.176Z,97.27
2017-11-25T02:57:08.175Z,97.46
2017-11-25T02:58:08.171Z,97.36
2017-11-25T02:59:08.164Z,96.70
2017-11-25T03:00:08.169Z,96.79
2017-11-25T03:01:08.163Z,96.70
2017-11-25T03:02:08.163Z,97.46
2017-11-25T03:03:08.165Z,97.36
2017-11-25T03:04:08.157Z,97.46
2017-11-25T03:05:08.159Z,96.79
2017-11-25T03:06:08.155Z,96.60
2017-11-25T03:07:08.154Z,96.79
2017-11-25T03:08:08.152Z,96.79
2017-11-25T03:09:08.155Z,96.79
2017-11-25T03:10:08.148Z,96.89
2017-11-25T03:11:08.150Z,96.89
2017-11-25T03:12:08.144Z,96.89
2017-11-25T03:13:08.142Z,96.89
2017-11-25T03:14:08.143Z,96.89
2017-11-25T03:15:08.137Z,96.89
2017-11-25T03:16:08.140Z,96.89
2017-11-25T03:17:08.133Z,97.08
2017-11-25T03:18:08.130Z,97.08
2017-11-25T03:19:08.131Z,97.08
2017-11-25T03:20:08.127Z,96.89
2017-11-25T03:21:08.133Z,96.70
2017-11-25T03:22:08.126Z,96.79
2017-11-25T03:23:08.125Z,96.98
2017-11-25T03:24:08.121Z,96.79
2017-11-25T03:25:08.125Z,96.51
2017-11-25T03:26:08.117Z,96.70
2017-11-25T03:27:08.116Z,96.60
2017-11-25T03:28:08.116Z,96.70
2017-11-25T03:29:08.108Z,97.08
2017-11-25T03:30:08.113Z,97.27
2017-11-25T03:31:08.108Z,97.51
2017-11-25T03:32:08.107Z,97.46
2017-11-25T03:33:08.104Z,97.46
2017-11-25T03:34:08.121Z,96.94
2017-11-25T03:35:08.126Z,96.70
2017-11-25T03:36:08.099Z,96.79
2017-11-25T03:37:08.098Z,97.27
2017-11-25T03:38:08.096Z,97.27
2017-11-25T03:39:08.098Z,97.27
2017-11-25T03:40:08.089Z,96.51
2017-11-25T03:41:08.098Z,96.51
2017-11-25T03:42:08.090Z,96.41
2017-11-25T03:43:08.091Z,96.65
2017-11-25T03:44:08.086Z,96.70
2017-11-25T03:45:08.081Z,96.89
2017-11-25T03:46:08.080Z,96.89
2017-11-25T03:47:08.080Z,96.89
2017-11-25T03:48:08.084Z,96.70
2017-11-25T03:49:08.074Z,96.89
2017-11-25T03:50:08.073Z,96.98
2017-11-25T03:51:08.069Z,97.08
2017-11-25T03:52:08.074Z,96.60
2017-11-25T03:53:08.083Z,96.70
2017-11-25T03:54:08.060Z,96.79
2017-11-25T03:55:08.064Z,96.51
2017-11-25T03:56:08.071Z,96.98
2017-11-25T03:57:08.061Z,96.79
2017-11-25T03:58:08.060Z,96.70
2017-11-25T03:59:08.054Z,96.89
2017-11-25T04:00:08.069Z,97.36
2017-11-25T04:01:08.052Z,97.27
2017-11-25T04:02:08.054Z,97.36
2017-11-25T04:03:08.053Z,97.55
2017-11-25T04:04:08.046Z,96.70
2017-11-25T04:05:08.046Z,96.70
2017-11-25T04:06:08.043Z,96.79
2017-11-25T04:07:08.053Z,96.79
2017-11-25T04:08:08.049Z,97.27
2017-11-25T04:09:08.042Z,97.31
2017-11-25T04:10:08.039Z,97.36
2017-11-25T04:11:08.038Z,97.27
2017-11-25T04:12:08.045Z,97.17
2017-11-25T04:13:08.032Z,97.27
2017-11-25T04:14:08.033Z,97.27
2017-11-25T04:15:08.033Z,97.55
2017-11-25T04:16:08.026Z,96.98
2017-11-25T04:17:08.039Z,96.89
2017-11-25T04:18:08.024Z,96.70
2017-11-25T04:19:08.019Z,96.79
2017-11-25T04:20:08.025Z,96.79
2017-11-25T04:21:08.028Z,96.79
2017-11-25T04:22:08.018Z,97.08
2017-11-25T04:23:08.009Z,96.84
2017-11-25T04:24:08.014Z,96.75
2017-11-25T04:25:08.003Z,97.08
2017-11-25T04:26:08.011Z,97.13
2017-11-25T04:27:08.010Z,96.41
2017-11-25T04:28:08.006Z,96.51
2017-11-25T04:29:08.001Z,96.55
2017-11-25T04:30:08.008Z,96.46
2017-11-25T04:31:07.998Z,96.51
2017-11-25T04:32:08.006Z,96.41
2017-11-25T04:33:07.995Z,96.46
2017-11-25T04:34:07.995Z,96.31
2017-11-25T04:35:07.995Z,96.36
2017-11-25T04:36:07.989Z,96.22
2017-11-25T04:37:07.985Z,95.94
2017-11-25T04:38:07.986Z,96.12
2017-11-25T04:39:07.987Z,96.60
2017-11-25T04:40:07.988Z,96.51
2017-11-25T04:41:07.981Z,96.55
2017-11-25T04:42:07.985Z,96.84
2017-11-25T04:43:07.978Z,96.17
2017-11-25T04:44:07.983Z,95.98
2017-11-25T04:45:07.980Z,95.98
2017-11-25T04:46:07.974Z,95.65
2017-11-25T04:47:07.970Z,95.70
2017-11-25T04:48:07.969Z,95.89
2017-11-25T04:49:07.980Z,96.08
2017-11-25T04:50:07.975Z,95.89
2017-11-25T04:51:08.021Z,96.08
2017-11-25T04:52:07.966Z,96.36
2017-11-25T04:53:07.967Z,95.89
2017-11-25T04:54:07.959Z,96.27
2017-11-25T04:55:07.961Z,95.51
2017-11-25T04:56:07.958Z,95.89
2017-11-25T04:57:07.963Z,96.36
2017-11-25T04:58:07.964Z,95.89
2017-11-25T04:59:07.951Z,95.70
2017-11-25T05:00:07.955Z,95.22
2017-11-25T05:01:07.945Z,94.93
2017-11-25T05:02:07.943Z,95.89
2017-11-25T05:03:07.944Z,95.12
2017-11-25T05:04:07.943Z,95.32
2017-11-25T05:05:07.941Z,95.79
2017-11-25T05:06:07.951Z,96.27
2017-11-25T05:07:07.941Z,95.51
2017-11-25T05:08:07.942Z,96.27
2017-11-25T05:09:07.934Z,95.98
2017-11-25T05:10:07.934Z,96.17
2017-11-25T05:11:07.928Z,96.17
2017-11-25T05:12:07.931Z,96.65
2017-11-25T05:13:07.933Z,96.84
2017-11-25T05:14:07.926Z,97.60
2017-11-25T05:15:07.926Z,97.31
2017-11-25T05:16:07.925Z,97.31
2017-11-25T05:17:07.924Z,96.84
2017-11-25T05:18:07.920Z,97.13
2017-11-25T05:19:07.926Z,96.46
2017-11-25T05:20:07.952Z,96.55
2017-11-25T05:21:07.916Z,96.36
2017-11-25T05:22:07.923Z,96.84
2017-11-25T05:23:07.912Z,96.55
2017-11-25T05:24:07.907Z,96.46
2017-11-25T05:25:07.907Z,96.55
2017-11-25T05:26:07.904Z,96.27
2017-11-25T05:27:07.906Z,96.36
2017-11-25T05:28:07.902Z,96.17
2017-11-25T05:29:07.900Z,95.98
2017-11-25T05:30:07.896Z,96.36
2017-11-25T05:31:07.897Z,95.89
2017-11-25T05:32:07.898Z,95.98
2017-11-25T05:33:07.894Z,95.79
2017-11-25T05:34:07.894Z,95.32
2017-11-25T05:35:07.887Z,95.89
2017-11-25T05:36:07.891Z,96.46
2017-11-25T05:37:07.890Z,96.55
2017-11-25T05:38:07.892Z,95.89
2017-11-25T05:39:07.892Z,95.89
2017-11-25T05:40:07.889Z,96.27
2017-11-25T05:41:07.881Z,96.27
2017-11-25T05:42:07.879Z,96.65
2017-11-25T05:43:07.879Z,96.46
2017-11-25T05:44:07.887Z,96.27
2017-11-25T05:45:07.872Z,96.55
2017-11-25T05:46:07.895Z,96.55
2017-11-25T05:47:09.410Z,96.55
2017-11-25T05:48:07.869Z,96.55
2017-11-25T05:49:07.868Z,96.65
2017-11-25T05:50:07.862Z,96.65
2017-11-25T05:51:07.875Z,96.55
2017-11-25T05:52:07.861Z,97.22
2017-11-25T05:53:07.878Z,96.94
2017-11-25T05:54:07.861Z,97.03
2017-11-25T05:55:07.856Z,96.55
2017-11-25T05:56:07.854Z,96.75
2017-11-25T05:57:07.853Z,97.03
2017-11-25T05:58:07.849Z,96.75
2017-11-25T05:59:07.847Z,96.94
2017-11-25T06:00:07.853Z,96.75
2017-11-25T06:01:07.853Z,96.94
2017-11-25T06:02:07.848Z,96.84
2017-11-25T06:03:07.845Z,97.13
2017-11-25T06:04:07.838Z,97.41
2017-11-25T06:05:07.840Z,96.55
2017-11-25T06:06:07.836Z,96.08
2017-11-25T06:07:07.837Z,95.98
2017-11-25T06:08:07.834Z,95.32
2017-11-25T06:09:07.831Z,96.46
2017-11-25T06:10:07.830Z,96.08
2017-11-25T06:11:07.831Z,96.55
2017-11-25T06:12:07.831Z,96.46
2017-11-25T06:13:07.824Z,96.46
2017-11-25T06:14:07.827Z,96.55
2017-11-25T06:15:07.823Z,96.65
2017-11-25T06:16:07.817Z,97.22
2017-11-25T06:17:07.818Z,97.22
2017-11-25T06:18:07.815Z,96.55
2017-11-25T06:19:07.816Z,96.27
2017-11-25T06:20:07.818Z,96.08
2017-11-25T06:21:07.815Z,95.70
2017-11-25T06:22:07.822Z,95.89
2017-11-25T06:23:07.811Z,95.79
2017-11-25T06:24:07.805Z,95.32
2017-11-25T06:25:07.819Z,95.22
2017-11-25T06:26:07.802Z,96.08
2017-11-25T06:27:07.802Z,96.08
2017-11-25T06:28:07.799Z,96.46
2017-11-25T06:29:07.802Z,97.22
2017-11-25T06:30:07.796Z,96.94
2017-11-25T06:31:07.792Z,96.84
2017-11-25T06:32:07.796Z,96.55
2017-11-25T06:33:07.790Z,96.65
2017-11-25T06:34:07.795Z,96.65
2017-11-25T06:35:07.786Z,96.65
2017-11-25T06:36:07.782Z,96.36
2017-11-25T06:37:07.781Z,96.84
2017-11-25T06:38:07.781Z,96.65
2017-11-25T06:39:07.792Z,96.65
2017-11-25T06:40:07.774Z,96.65
2017-11-25T06:41:07.812Z,96.65
2017-11-25T06:42:07.773Z,96.08
2017-11-25T06:43:07.783Z,95.89
2017-11-25T06:44:07.771Z,96.17
2017-11-25T06:45:07.770Z,96.08
2017-11-25T06:46:07.768Z,95.98
2017-11-25T06:47:07.771Z,95.79
2017-11-25T06:48:07.762Z,96.36
2017-11-25T06:49:07.765Z,95.98
2017-11-25T06:50:07.767Z,96.46
2017-11-25T06:51:07.764Z,96.08
2017-11-25T06:52:07.764Z,96.17
2017-11-25T06:53:07.764Z,95.89
2017-11-25T06:54:07.754Z,96.08
2017-11-25T06:55:07.751Z,96.17
2017-11-25T06:56:07.750Z,95.41
2017-11-25T06:57:07.752Z,96.17
2017-11-25T06:58:07.747Z,96.08
2017-11-25T06:59:07.751Z,96.36
2017-11-25T07:00:07.745Z,96.55
2017-11-25T07:01:07.744Z,95.98
2017-11-25T07:02:07.741Z,96.55
2017-11-25T07:03:07.739Z,96.60
2017-11-25T07:04:07.740Z,96.94
2017-11-25T07:05:07.732Z,96.84
2017-11-25T07:06:07.731Z,96.79
2017-11-25T07:07:07.729Z,97.51
2017-11-25T07:08:07.726Z,97.55
2017-11-25T07:09:07.729Z,97.31
2017-11-25T07:10:07.725Z,97.27
2017-11-25T07:11:07.725Z,97.08
2017-11-25T07:12:07.723Z,97.31
2017-11-25T07:13:07.719Z,97.70
2017-11-25T07:14:07.721Z,97.41
2017-11-25T07:15:07.715Z,96.65
2017-11-25T07:16:07.715Z,96.55
2017-11-25T07:17:07.709Z,96.55
2017-11-25T07:18:07.712Z,97.22
2017-11-25T07:19:07.709Z,96.55
2017-11-25T07:20:07.708Z,96.36
2017-11-25T07:21:07.703Z,96.60
2017-11-25T07:22:07.706Z,96.70
2017-11-25T07:23:07.698Z,97.03
2017-11-25T07:24:07.697Z,97.27
2017-11-25T07:25:07.702Z,97.27
2017-11-25T07:26:07.693Z,97.22
2017-11-25T07:27:07.690Z,97.46
2017-11-25T07:28:07.687Z,97.74
2017-11-25T07:29:07.686Z,97.60
2017-11-25T07:30:07.704Z,98.03
2017-11-25T07:31:07.688Z,97.65
2017-11-25T07:32:07.681Z,97.99
2017-11-25T07:33:07.688Z,98.32
2017-11-25T07:34:07.670Z,98.27
2017-11-25T07:35:07.676Z,98.32
2017-11-25T07:36:07.680Z,98.22
2017-11-25T07:37:07.674Z,98.98
2017-11-25T07:38:07.670Z,98.98
2017-11-25T07:39:07.670Z,98.79
2017-11-25T07:40:07.665Z,98.18
2017-11-25T07:41:07.659Z,97.84
2017-11-25T07:42:07.659Z,97.74
2017-11-25T07:43:07.682Z,97.31
2017-11-25T07:44:07.660Z,97.65
2017-11-25T07:45:07.655Z,97.31
2017-11-25T07:46:07.649Z,97.46
2017-11-25T07:47:07.656Z,96.51
2017-11-25T07:48:07.645Z,96.70
2017-11-25T07:49:07.649Z,97.36
2017-11-25T07:50:07.641Z,97.46
2017-11-25T07:51:07.648Z,96.79
2017-11-25T07:52:07.639Z,97.08
2017-11-25T07:53:07.643Z,97.17
2017-11-25T07:54:07.634Z,97.31
2017-11-25T07:55:07.633Z,97.27
2017-11-25T07:56:07.630Z,97.27
2017-11-25T07:57:07.630Z,97.27
2017-11-25T07:58:07.627Z,97.46
2017-11-25T07:59:07.628Z,96.75
2017-11-25T08:00:07.621Z,97.03
2017-11-25T08:01:07.613Z,96.65
2017-11-25T08:02:07.620Z,96.79
2017-11-25T08:03:07.722Z,97.22
2017-11-25T08:04:07.642Z,96.55
2017-11-25T08:05:07.611Z,95.98
2017-11-25T08:06:07.625Z,95.70
2017-11-25T08:07:07.614Z,95.46
2017-11-25T08:08:07.617Z,95.89
2017-11-25T08:09:07.628Z,96.17
2017-11-25T08:10:07.604Z,96.36
2017-11-25T08:11:07.598Z,95.70
2017-11-25T08:12:07.598Z,95.41
2017-11-25T08:13:07.595Z,95.51
2017-11-25T08:14:07.596Z,95.41
2017-11-25T08:15:07.592Z,95.60
2017-11-25T08:16:07.591Z,95.56
2017-11-25T08:17:07.591Z,95.94
2017-11-25T08:18:07.588Z,96.03
2017-11-25T08:19:07.585Z,95.32
2017-11-25T08:20:07.585Z,95.98
2017-11-25T08:21:07.605Z,95.51
2017-11-25T08:22:07.580Z,95.89
2017-11-25T08:23:07.577Z,95.89
2017-11-25T08:24:07.576Z,95.79
2017-11-25T08:25:07.572Z,95.32
2017-11-25T08:26:07.570Z,95.03
2017-11-25T08:27:07.582Z,94.93
2017-11-25T08:28:07.566Z,95.32
2017-11-25T08:29:07.564Z,95.60
2017-11-25T08:30:09.454Z,94.93
2017-11-25T08:31:07.562Z,95.22
2017-11-25T08:32:07.558Z,95.22
2017-11-25T08:33:07.562Z,95.03
2017-11-25T08:34:07.556Z,94.93
2017-11-25T08:35:10.786Z,95.03
2017-11-25T08:36:07.571Z,95.12
2017-11-25T08:37:07.550Z,95.51
2017-11-25T08:38:07.544Z,95.79
2017-11-25T08:39:07.547Z,95.32
2017-11-25T08:40:07.547Z,95.70
2017-11-25T08:41:07.541Z,95.51
2017-11-25T08:42:07.537Z,96.17
2017-11-25T08:43:07.544Z,95.60
2017-11-25T08:44:07.542Z,95.84
2017-11-25T08:45:07.535Z,95.84
2017-11-25T08:46:07.533Z,96.03
2017-11-25T08:47:07.535Z,95.03
2017-11-25T08:48:07.531Z,95.12
2017-11-25T08:49:07.540Z,94.98
2017-11-25T08:50:07.527Z,95.08
2017-11-25T08:51:07.524Z,95.12
2017-11-25T08:52:07.533Z,95.36
2017-11-25T08:53:07.519Z,95.08
2017-11-25T08:54:07.517Z,96.17
2017-11-25T08:55:07.523Z,95.12
2017-11-25T08:56:07.517Z,95.08
2017-11-25T08:57:07.514Z,95.89
2017-11-25T08:58:07.512Z,96.36
2017-11-25T08:59:07.513Z,95.75
2017-11-25T09:00:07.522Z,96.03
2017-11-25T09:01:07.507Z,96.03
2017-11-25T09:02:07.507Z,95.27
2017-11-25T09:03:07.506Z,96.31
2017-11-25T09:04:07.495Z,96.03
2017-11-25T09:05:07.504Z,95.75
2017-11-25T09:06:07.496Z,96.31
2017-11-25T09:07:07.497Z,95.84
2017-11-25T09:08:07.495Z,96.31
2017-11-25T09:09:07.486Z,96.12
2017-11-25T09:10:07.491Z,96.03
2017-11-25T09:11:07.486Z,95.17
2017-11-25T09:12:07.486Z,95.56
2017-11-25T09:13:07.485Z,96.03
2017-11-25T09:14:07.481Z,96.03
2017-11-25T09:15:07.481Z,95.08
2017-11-25T09:16:07.478Z,95.56
2017-11-25T09:17:07.471Z,95.46
2017-11-25T09:18:07.474Z,95.65
2017-11-25T09:19:07.472Z,95.46
2017-11-25T09:20:07.472Z,95.08
2017-11-25T09:21:07.469Z,95.36
2017-11-25T09:22:07.465Z,95.08
2017-11-25T09:23:07.464Z,95.27
2017-11-25T09:24:07.465Z,95.56
2017-11-25T09:25:07.460Z,95.08
2017-11-25T09:26:07.454Z,95.08
2017-11-25T09:27:07.456Z,95.08
2017-11-25T09:28:07.455Z,94.13
2017-11-25T09:29:07.451Z,94.22
2017-11-25T09:30:07.467Z,94.22
2017-11-25T09:31:07.447Z,93.65
2017-11-25T09:32:07.446Z,94.22
2017-11-25T09:33:07.445Z,94.42
2017-11-25T09:34:07.446Z,94.32
2017-11-25T09:35:07.450Z,94.51
2017-11-25T09:36:07.439Z,94.22
2017-11-25T09:37:07.438Z,94.42
2017-11-25T09:38:09.967Z,94.32
2017-11-25T09:39:07.437Z,93.74
2017-11-25T09:40:07.428Z,93.37
2017-11-25T09:41:07.433Z,93.18
2017-11-25T09:42:07.424Z,93.84
2017-11-25T09:43:07.423Z,93.74
2017-11-25T09:44:07.419Z,93.84
2017-11-25T09:45:07.424Z,93.74
2017-11-25T09:46:07.414Z,93.27
2017-11-25T09:47:07.422Z,93.74
2017-11-25T09:48:07.425Z,94.22
2017-11-25T09:49:07.408Z,94.13
2017-11-25T09:50:07.506Z,94.22
2017-11-25T09:51:07.409Z,93.94
2017-11-25T09:52:07.463Z,94.03
2017-11-25T09:53:07.411Z,94.22
2017-11-25T09:54:07.396Z,93.84
2017-11-25T09:55:07.397Z,94.22
2017-11-25T09:56:07.393Z,94.22
2017-11-25T09:57:07.398Z,94.42
2017-11-25T09:58:07.387Z,94.51
2017-11-25T09:59:07.385Z,94.22
2017-11-25T10:00:07.385Z,94.51
2017-11-25T10:01:07.382Z,94.60
2017-11-25T10:02:07.377Z,94.13
2017-11-25T10:03:07.382Z,94.22
2017-11-25T10:04:07.372Z,94.42
2017-11-25T10:05:07.370Z,94.51
2017-11-25T10:06:07.370Z,94.22
2017-11-25T10:07:07.368Z,94.32
2017-11-25T10:08:07.373Z,95.08
2017-11-25T10:09:07.375Z,94.70
2017-11-25T10:10:07.357Z,94.79
2017-11-25T10:11:07.358Z,94.79
2017-11-25T10:12:07.360Z,95.08
2017-11-25T10:13:07.352Z,94.79
2017-11-25T10:14:07.352Z,94.89
2017-11-25T10:15:07.350Z,94.32
2017-11-25T10:16:07.349Z,94.42
2017-11-25T10:17:07.348Z,93.65
2017-11-25T10:18:07.343Z,93.46
2017-11-25T10:19:07.338Z,93.94
2017-11-25T10:20:07.342Z,93.46
2017-11-25T10:21:07.337Z,93.51
2017-11-25T10:22:07.335Z,94.18
2017-11-25T10:23:07.333Z,94.37
2017-11-25T10:24:07.334Z,94.27
2017-11-25T10:25:07.328Z,94.84
2017-11-25T10:26:07.323Z,95.03
2017-11-25T10:27:07.327Z,94.65
2017-11-25T10:28:07.320Z,95.22
2017-11-25T10:29:07.315Z,95.12
2017-11-25T10:30:07.314Z,95.03
2017-11-25T10:31:07.313Z,94.37
2017-11-25T10:32:07.309Z,94.27
2017-11-25T10:33:07.312Z,93.79
2017-11-25T10:34:07.305Z,93.23
2017-11-25T10:35:07.302Z,92.46
2017-11-25T10:36:07.299Z,92.27
2017-11-25T10:37:07.301Z,92.27
2017-11-25T10:38:07.294Z,92.36
2017-11-25T10:39:07.345Z,92.65
2017-11-25T10:40:07.289Z,91.89
2017-11-25T10:41:07.289Z,92.08
2017-11-25T10:42:07.278Z,91.70
2017-11-25T10:43:07.282Z,91.22
2017-11-25T10:44:07.277Z,91.51
2017-11-25T10:45:07.276Z,91.42
2017-11-25T10:46:07.278Z,91.42
2017-11-25T10:47:07.269Z,91.51
2017-11-25T10:48:07.287Z,91.89
2017-11-25T10:49:07.263Z,91.22
2017-11-25T10:50:07.264Z,91.42
2017-11-25T10:51:07.259Z,90.94
2017-11-25T10:52:07.255Z,91.42
2017-11-25T10:53:07.255Z,91.13
2017-11-25T10:54:07.248Z,91.13
2017-11-25T10:55:07.249Z,91.99
2017-11-25T10:56:07.243Z,91.42
2017-11-25T10:57:07.240Z,91.61
2017-11-25T10:58:07.236Z,91.51
2017-11-25T10:59:07.233Z,91.99
2017-11-25T11:00:07.239Z,91.80
2017-11-25T11:01:09.005Z,92.56
2017-11-25T11:02:07.226Z,92.27
2017-11-25T11:03:07.230Z,92.46
2017-11-25T11:04:07.231Z,92.56
2017-11-25T11:05:07.218Z,92.56
2017-11-25T11:06:07.212Z,91.89
2017-11-25T11:07:07.207Z,92.65
2017-11-25T11:08:07.207Z,92.65
2017-11-25T11:09:07.203Z,92.27
2017-11-25T11:10:08.991Z,92.65
2017-11-25T11:11:07.195Z,92.75
2017-11-25T11:12:07.193Z,92.27
2017-11-25T11:13:07.191Z,92.36
2017-11-25T11:14:07.193Z,92.46
2017-11-25T11:15:14.836Z,92.75
2017-11-25T11:17:02.719Z,91.99
2017-11-25T11:18:01.552Z,92.46
2017-11-25T11:19:56.937Z,92.56
2017-11-25T11:20:56.913Z,92.75
2017-11-25T11:22:50.316Z,92.56
2017-11-25T11:23:50.292Z,92.94
2017-11-25T11:25:45.669Z,92.75
2017-11-25T11:26:45.647Z,91.32
2017-11-25T11:28:40.051Z,91.80
2017-11-25T11:29:40.010Z,92.27
2017-11-25T11:31:34.388Z,92.36
2017-11-25T11:32:34.366Z,92.18
2017-11-25T11:34:27.815Z,92.65
2017-11-25T11:35:27.748Z,92.84
2017-11-25T11:37:22.151Z,92.36
2017-11-25T11:38:22.126Z,92.46
2017-11-25T11:40:15.507Z,92.27
2017-11-25T11:41:15.488Z,92.56
2017-11-25T11:43:09.875Z,92.61
2017-11-25T11:44:09.852Z,92.61
2017-11-25T11:46:03.304Z,93.08
2017-11-25T11:47:03.274Z,93.37
2017-11-25T11:48:56.659Z,93.37
2017-11-25T11:50:04.315Z,93.23
2017-11-25T11:51:51.042Z,92.99
2017-11-25T11:52:51.034Z,93.27
2017-11-25T11:54:44.400Z,93.18
2017-11-25T11:55:44.387Z,92.61
2017-11-25T11:57:45.862Z,93.37
2017-11-25T11:58:37.957Z,93.18
2017-11-25T12:00:31.331Z,92.32
2017-11-25T12:01:31.314Z,91.18
2017-11-25T12:03:25.706Z,92.03
2017-11-25T12:04:25.667Z,92.41
2017-11-25T12:05:25.682Z,92.80
2017-11-25T12:06:33.286Z,92.32
2017-11-25T12:08:20.064Z,91.47
2017-11-25T12:09:20.039Z,91.56
2017-11-25T12:11:14.987Z,92.13
2017-11-25T12:12:13.398Z,91.85
2017-11-25T12:13:13.396Z,91.94
2017-11-25T12:14:13.424Z,91.08
2017-11-25T12:15:13.402Z,91.42
2017-11-25T12:16:13.413Z,91.47
2017-11-25T12:17:13.394Z,90.99
2017-11-25T12:18:13.386Z,91.37
2017-11-25T12:19:13.379Z,90.89
2017-11-25T12:20:13.377Z,91.75
2017-11-25T12:21:13.373Z,91.18
2017-11-25T12:22:13.369Z,91.56
2017-11-25T12:23:13.384Z,91.80
2017-11-25T12:24:13.363Z,91.13
2017-11-25T12:25:13.362Z,90.75
2017-11-25T12:26:13.359Z,91.28
2017-11-25T12:27:13.353Z,90.61
2017-11-25T12:28:13.349Z,90.33
2017-11-25T12:29:13.357Z,90.23
2017-11-25T12:30:13.342Z,90.56
2017-11-25T12:31:13.347Z,90.28
2017-11-25T12:32:13.337Z,90.70
2017-11-25T12:33:13.347Z,90.70
2017-11-25T12:34:13.335Z,90.89
2017-11-25T12:35:13.330Z,90.70
2017-11-25T12:36:13.327Z,91.80
2017-11-25T12:37:13.334Z,91.51
2017-11-25T12:38:13.324Z,91.66
2017-11-25T12:39:13.320Z,91.42
2017-11-25T12:40:13.317Z,91.13
2017-11-25T12:41:13.314Z,91.51
2017-11-25T12:42:13.312Z,91.85
2017-11-25T12:43:13.308Z,92.41
2017-11-25T12:44:13.304Z,92.27
2017-11-25T12:45:13.306Z,91.61
2017-11-25T12:46:13.299Z,91.80
2017-11-25T12:47:13.299Z,91.22
2017-11-25T12:48:13.298Z,91.51
2017-11-25T12:49:13.293Z,91.70
2017-11-25T12:50:13.311Z,91.80
2017-11-25T12:51:13.316Z,91.99
2017-11-25T12:52:13.282Z,91.42
2017-11-25T12:53:13.279Z,91.18
2017-11-25T12:54:13.282Z,91.18
2017-11-25T12:55:13.277Z,91.32
2017-11-25T12:56:13.269Z,90.94
2017-11-25T12:57:13.272Z,90.75
2017-11-25T12:58:13.267Z,90.61
2017-11-25T12:59:13.262Z,91.08
2017-11-25T13:00:13.260Z,91.28
2017-11-25T13:01:13.257Z,91.56
2017-11-25T13:02:13.257Z,91.47
2017-11-25T13:03:13.250Z,91.47
2017-11-25T13:04:13.251Z,91.94
2017-11-25T13:05:13.241Z,91.47
2017-11-25T13:06:13.241Z,91.66
2017-11-25T13:07:13.247Z,91.56
2017-11-25T13:08:13.241Z,91.66
2017-11-25T13:09:13.235Z,91.85